San Agustin, Argentina
Current Conditions -  °F | °C
As of 8:00 PM on Thursday 20 Nov 2014 (Local Time) from SACO Reporting Station
Light Rain Light Rain  
Wind Chill: 61°   Ceiling: 1500
Heat Index: 61°   Visibility: 5mi
Dew Point: 57°   Wind: 3mph
Humidity: 88%   Direction: 180°S
Pressure: 30"   Gusts: NA
Location:  31.98°S, 64.38°W
Report Text: SACO 202300Z 18003KT 8000 -RA BKN015SCT040 16/14 Q1016
Loading
Personal Weather Stations






























Interactive Weather Map New forecast layout! Learn more

10-Day Weather Forecast

Advertisements
Track Severe Weather on mobile